Time;durP1;ratioP1;P1;durP2;ratioP2;P2;SDS_P1;SDS_P2;PMS_P1;PMS_P2;Temp;Humidity;BMP_temperature;BMP_pressure;BME280_temperature;BME280_humidity;BME280_pressure;Samples;Min_cycle;Max_cycle;Signal;HPM_P1;HPM_P2
2023/09/02 00:01:37;;;;;;;4.00;3.00;;;;;;;;;;5054725;28;20444;-83
2023/09/02 00:04:04;;;;;;;3.57;2.50;;;;;;;;;;5052291;28;20497;-83
2023/09/02 00:06:33;;;;;;;4.47;2.87;;;;;;;;;;5052422;28;20500;-83
2023/09/02 00:09:00;;;;;;;4.70;3.07;;;;;;;;;;5051786;28;20472;-83
2023/09/02 00:11:27;;;;;;;3.07;2.70;;;;;;;;;;5051791;28;20865;-83
2023/09/02 00:13:55;;;;;;;2.73;2.43;;;;;;;;;;5051751;28;21030;-83
2023/09/02 00:16:22;;;;;;;3.57;2.77;;;;;;;;;;5052619;28;20884;-83
2023/09/02 00:18:49;;;;;;;3.70;3.00;;;;;;;;;;5051965;28;20434;-83
2023/09/02 00:21:16;;;;;;;3.07;2.60;;;;;;;;;;5051807;28;20445;-83
2023/09/02 00:23:46;;;;;;;4.60;2.93;;;;;;;;;;5052249;28;20505;-83
2023/09/02 00:26:13;;;;;;;4.70;3.47;;;;;;;;;;5051687;28;20548;-83
2023/09/02 00:28:40;;;;;;;5.10;3.20;;;;;;;;;;5051817;28;20505;-83
2023/09/02 00:31:07;;;;;;;4.90;3.00;;;;;;;;;;5051458;28;20441;-83
2023/09/02 00:33:35;;;;;;;3.23;2.77;;;;;;;;;;5051695;28;20897;-83
2023/09/02 00:36:02;;;;;;;4.10;2.97;;;;;;;;;;5051810;28;20453;-83
2023/09/02 00:38:29;;;;;;;4.83;2.80;;;;;;;;;;5052539;28;20482;-84
2023/09/02 00:41:01;;;;;;;3.90;2.80;;;;;;;;;;5051297;28;20963;-83
2023/09/02 00:43:29;;;;;;;4.10;2.77;;;;;;;;;;5050720;28;20552;-83
2023/09/02 00:45:57;;;;;;;4.13;2.87;;;;;;;;;;5050991;28;20501;-83
2023/09/02 00:48:24;;;;;;;3.17;2.70;;;;;;;;;;5051605;28;21158;-83
2023/09/02 00:50:51;;;;;;;3.50;2.83;;;;;;;;;;5051736;28;20511;-83
2023/09/02 00:53:20;;;;;;;3.30;2.40;;;;;;;;;;5050931;28;20489;-83
2023/09/02 00:55:48;;;;;;;3.43;2.70;;;;;;;;;;5051458;28;20480;-84
2023/09/02 00:58:16;;;;;;;3.63;2.77;;;;;;;;;;5051529;28;20477;-83
2023/09/02 01:00:44;;;;;;;3.77;2.83;;;;;;;;;;5050718;28;20441;-83
2023/09/02 01:03:11;;;;;;;3.53;2.90;;;;;;;;;;5050760;28;20489;-83
2023/09/02 01:05:38;;;;;;;4.07;2.90;;;;;;;;;;5050820;28;20929;-83
2023/09/02 01:08:06;;;;;;;3.13;2.50;;;;;;;;;;5051261;28;20477;-83
2023/09/02 01:10:34;;;;;;;3.50;2.80;;;;;;;;;;5050928;28;20469;-83
2023/09/02 01:13:02;;;;;;;3.20;2.90;;;;;;;;;;5050598;28;20493;-83
2023/09/02 01:15:31;;;;;;;4.43;2.83;;;;;;;;;;5050534;28;20489;-83
2023/09/02 01:17:58;;;;;;;3.50;2.63;;;;;;;;;;5051401;28;20441;-83
2023/09/02 01:20:26;;;;;;;3.20;2.80;;;;;;;;;;5051171;28;20507;-83
2023/09/02 01:23:00;;;;;;;3.80;3.00;;;;;;;;;;5050870;28;20511;-83
2023/09/02 01:25:35;;;;;;;4.03;2.80;;;;;;;;;;5053641;28;20464;-83
2023/09/02 01:28:06;;;;;;;3.13;2.83;;;;;;;;;;5056753;28;20473;-83
2023/09/02 01:30:35;;;;;;;3.10;2.70;;;;;;;;;;5052243;28;20473;-83
2023/09/02 01:33:06;;;;;;;3.37;2.60;;;;;;;;;;5050602;28;20465;-83
2023/09/02 01:35:37;;;;;;;3.03;2.53;;;;;;;;;;5051285;28;20863;-83
2023/09/02 01:38:05;;;;;;;4.03;2.90;;;;;;;;;;5051006;28;20502;-83
2023/09/02 01:40:34;;;;;;;3.90;2.73;;;;;;;;;;5051084;28;20488;-83
2023/09/02 01:43:02;;;;;;;3.60;3.20;;;;;;;;;;5050425;28;20487;-83
2023/09/02 01:45:33;;;;;;;3.80;2.50;;;;;;;;;;5050822;28;20795;-83
2023/09/02 01:48:01;;;;;;;3.50;2.77;;;;;;;;;;5050940;28;20485;-83
2023/09/02 01:50:30;;;;;;;3.40;3.03;;;;;;;;;;5050976;28;20494;-83
2023/09/02 01:52:57;;;;;;;3.80;2.50;;;;;;;;;;5050045;28;20505;-83
2023/09/02 01:55:25;;;;;;;2.63;2.23;;;;;;;;;;5051465;28;20520;-84
2023/09/02 01:57:52;;;;;;;3.73;2.40;;;;;;;;;;5051036;28;20442;-83
2023/09/02 02:00:19;;;;;;;4.70;3.07;;;;;;;;;;5050904;28;20441;-83
2023/09/02 02:02:53;;;;;;;5.50;3.03;;;;;;;;;;5050322;28;20469;-83
2023/09/02 02:05:23;;;;;;;5.50;2.80;;;;;;;;;;5049854;28;20458;-83
2023/09/02 02:07:54;;;;;;;3.50;2.80;;;;;;;;;;5050765;28;20596;-83
2023/09/02 02:10:23;;;;;;;3.00;2.60;;;;;;;;;;5050837;28;20529;-83
2023/09/02 02:12:50;;;;;;;3.70;2.53;;;;;;;;;;5050345;28;20465;-83
2023/09/02 02:15:18;;;;;;;4.23;3.00;;;;;;;;;;5054014;28;20480;-83
2023/09/02 02:17:45;;;;;;;3.87;2.90;;;;;;;;;;5053980;28;20441;-83
2023/09/02 02:20:14;;;;;;;5.70;2.80;;;;;;;;;;5054499;28;20457;-84
2023/09/02 02:22:41;;;;;;;3.50;2.30;;;;;;;;;;5054203;28;20457;-84
2023/09/02 02:25:08;;;;;;;2.60;2.40;;;;;;;;;;5054072;28;20477;-83
2023/09/02 02:27:36;;;;;;;4.10;2.70;;;;;;;;;;5054039;28;20508;-83
2023/09/02 02:30:04;;;;;;;4.20;2.73;;;;;;;;;;5054306;28;20449;-83
2023/09/02 02:32:31;;;;;;;3.87;2.90;;;;;;;;;;5053636;28;20657;-83
2023/09/02 02:34:58;;;;;;;4.27;2.90;;;;;;;;;;5053218;28;20484;-83
2023/09/02 02:37:27;;;;;;;3.00;2.70;;;;;;;;;;5053942;28;20445;-84
2023/09/02 02:39:54;;;;;;;3.80;2.50;;;;;;;;;;5053662;28;20795;-83
2023/09/02 02:42:22;;;;;;;3.70;3.17;;;;;;;;;;5052984;28;20473;-83
2023/09/02 02:44:49;;;;;;;3.00;2.40;;;;;;;;;;5054059;28;20541;-84
2023/09/02 02:47:17;;;;;;;4.40;3.00;;;;;;;;;;5053947;28;20889;-84
2023/09/02 02:49:44;;;;;;;3.77;2.70;;;;;;;;;;5052978;28;21214;-83
2023/09/02 02:52:11;;;;;;;5.73;3.17;;;;;;;;;;5053888;28;20437;-83
2023/09/02 02:54:40;;;;;;;3.17;2.57;;;;;;;;;;5053538;28;20829;-83
2023/09/02 02:57:07;;;;;;;3.37;2.60;;;;;;;;;;5053580;28;20445;-83
2023/09/02 02:59:35;;;;;;;3.87;2.90;;;;;;;;;;5055276;28;20942;-83
2023/09/02 03:02:02;;;;;;;4.73;2.60;;;;;;;;;;5054613;28;20480;-83
2023/09/02 03:04:29;;;;;;;5.40;2.73;;;;;;;;;;5053769;28;20473;-83
2023/09/02 03:06:56;;;;;;;6.13;2.70;;;;;;;;;;5053505;28;20560;-83
2023/09/02 03:09:24;;;;;;;4.63;2.90;;;;;;;;;;5053452;28;20517;-83
2023/09/02 03:11:52;;;;;;;3.17;2.50;;;;;;;;;;5052230;28;20442;-83
2023/09/02 03:14:20;;;;;;;3.90;2.77;;;;;;;;;;5052607;28;21061;-83
2023/09/02 03:16:47;;;;;;;3.30;2.63;;;;;;;;;;5053015;28;20446;-83
2023/09/02 03:19:14;;;;;;;3.20;2.70;;;;;;;;;;5053573;28;20485;-83
2023/09/02 03:21:41;;;;;;;3.80;2.80;;;;;;;;;;5053022;28;20477;-84
2023/09/02 03:24:09;;;;;;;4.20;2.77;;;;;;;;;;5052800;28;20516;-84
2023/09/02 03:26:36;;;;;;;5.33;2.70;;;;;;;;;;5053263;28;20859;-83
2023/09/02 03:29:05;;;;;;;3.20;2.40;;;;;;;;;;5053449;28;20872;-83
2023/09/02 03:31:32;;;;;;;6.03;3.03;;;;;;;;;;5053288;28;20449;-83
2023/09/02 03:33:59;;;;;;;3.10;2.33;;;;;;;;;;5041870;28;20461;-84
2023/09/02 03:36:27;;;;;;;3.10;2.17;;;;;;;;;;5053844;28;20473;-83
2023/09/02 03:38:54;;;;;;;3.40;2.43;;;;;;;;;;5052273;28;20495;-84
2023/09/02 03:41:23;;;;;;;3.57;2.20;;;;;;;;;;5053065;28;20442;-83
2023/09/02 03:43:50;;;;;;;3.70;2.70;;;;;;;;;;5052505;28;20692;-84
2023/09/02 03:46:19;;;;;;;2.60;2.30;;;;;;;;;;5052994;28;20461;-84
2023/09/02 03:48:46;;;;;;;5.63;3.20;;;;;;;;;;5052721;28;20535;-83
2023/09/02 03:51:16;;;;;;;4.03;2.77;;;;;;;;;;5052499;28;20482;-84
2023/09/02 03:53:43;;;;;;;3.60;2.83;;;;;;;;;;5052461;28;20544;-83
2023/09/02 03:56:10;;;;;;;3.40;2.60;;;;;;;;;;5052708;28;20449;-84
2023/09/02 03:58:38;;;;;;;4.30;2.60;;;;;;;;;;5052689;28;20441;-83
2023/09/02 04:01:06;;;;;;;3.97;2.97;;;;;;;;;;5052023;28;20966;-83
2023/09/02 04:03:36;;;;;;;4.13;2.77;;;;;;;;;;5051856;28;21002;-83
2023/09/02 04:06:03;;;;;;;3.00;2.60;;;;;;;;;;5051854;28;20499;-83
2023/09/02 04:08:33;;;;;;;3.90;2.90;;;;;;;;;;5052436;28;20501;-83
2023/09/02 04:11:01;;;;;;;3.70;2.77;;;;;;;;;;5051355;28;20942;-84
2023/09/02 04:13:29;;;;;;;5.07;2.80;;;;;;;;;;5052138;28;20551;-83
2023/09/02 04:15:56;;;;;;;4.40;2.83;;;;;;;;;;5052659;28;20443;-84
2023/09/02 04:18:23;;;;;;;4.00;2.57;;;;;;;;;;5052305;28;20433;-84
2023/09/02 04:20:52;;;;;;;4.27;3.23;;;;;;;;;;5051515;28;20484;-84
2023/09/02 04:23:21;;;;;;;5.10;3.17;;;;;;;;;;5052445;28;20453;-83
2023/09/02 04:25:49;;;;;;;4.30;2.90;;;;;;;;;;5051753;28;20980;-83
2023/09/02 04:28:16;;;;;;;4.27;3.50;;;;;;;;;;5051990;28;20539;-84
2023/09/02 04:30:44;;;;;;;4.73;3.20;;;;;;;;;;5052118;28;20438;-84
2023/09/02 04:33:12;;;;;;;3.00;2.43;;;;;;;;;;5051531;28;20469;-83
2023/09/02 04:35:39;;;;;;;3.47;3.17;;;;;;;;;;5051236;28;20499;-84
2023/09/02 04:38:08;;;;;;;4.00;3.17;;;;;;;;;;5052262;28;20474;-83
2023/09/02 04:40:37;;;;;;;3.43;2.50;;;;;;;;;;5051704;28;20445;-83
2023/09/02 04:43:04;;;;;;;4.10;2.53;;;;;;;;;;5051597;28;20493;-83
2023/09/02 04:45:33;;;;;;;3.97;2.30;;;;;;;;;;5051433;28;20454;-84
2023/09/02 04:48:00;;;;;;;3.60;2.83;;;;;;;;;;5051570;28;20481;-83
2023/09/02 04:50:27;;;;;;;5.63;2.97;;;;;;;;;;5051489;28;20485;-82
2023/09/02 04:52:56;;;;;;;5.60;2.70;;;;;;;;;;5039070;28;20458;-83
2023/09/02 04:55:26;;;;;;;4.07;2.90;;;;;;;;;;5051498;28;20441;-84
2023/09/02 04:57:53;;;;;;;4.07;2.87;;;;;;;;;;5051699;28;20429;-83
2023/09/02 05:00:21;;;;;;;4.90;3.13;;;;;;;;;;5051333;28;20453;-84
2023/09/02 05:02:48;;;;;;;2.60;2.20;;;;;;;;;;5049958;28;20461;-84
2023/09/02 05:05:17;;;;;;;3.00;2.40;;;;;;;;;;5049308;28;20476;-83
2023/09/02 05:07:44;;;;;;;5.40;2.73;;;;;;;;;;5049916;28;20512;-83
2023/09/02 05:10:13;;;;;;;2.70;2.10;;;;;;;;;;5050107;28;20492;-83
2023/09/02 05:12:42;;;;;;;3.73;2.40;;;;;;;;;;5049267;28;21029;-83
2023/09/02 05:15:09;;;;;;;3.60;2.63;;;;;;;;;;5049821;28;20505;-83
2023/09/02 05:17:37;;;;;;;2.90;2.60;;;;;;;;;;5051044;28;20438;-84
2023/09/02 05:20:05;;;;;;;3.43;2.43;;;;;;;;;;5032009;28;20470;-83
2023/09/02 05:22:32;;;;;;;2.97;2.43;;;;;;;;;;5035126;28;20465;-83
2023/09/02 05:24:59;;;;;;;3.63;2.73;;;;;;;;;;5053199;28;20452;-83
2023/09/02 05:27:27;;;;;;;2.90;2.47;;;;;;;;;;5055591;28;20496;-83
2023/09/02 05:29:56;;;;;;;4.43;2.60;;;;;;;;;;5053116;28;20480;-83
2023/09/02 05:32:23;;;;;;;3.23;2.80;;;;;;;;;;5050850;28;20449;-84
2023/09/02 05:34:50;;;;;;;3.33;2.67;;;;;;;;;;5051196;28;20442;-84
2023/09/02 05:37:18;;;;;;;5.90;2.70;;;;;;;;;;5050080;28;20448;-83
2023/09/02 05:39:45;;;;;;;3.47;2.80;;;;;;;;;;5050875;28;20476;-84
2023/09/02 05:42:12;;;;;;;3.27;2.30;;;;;;;;;;5050532;28;20828;-83
2023/09/02 05:44:41;;;;;;;4.67;2.87;;;;;;;;;;5050812;28;20911;-84
2023/09/02 05:47:10;;;;;;;3.27;2.70;;;;;;;;;;5051338;28;20460;-84
2023/09/02 05:49:37;;;;;;;3.10;2.53;;;;;;;;;;5052076;28;20449;-84
2023/09/02 05:52:05;;;;;;;3.80;2.63;;;;;;;;;;5054373;28;20441;-83
2023/09/02 05:54:33;;;;;;;3.97;2.83;;;;;;;;;;5054491;28;20455;-84
2023/09/02 05:57:00;;;;;;;3.70;2.53;;;;;;;;;;5053772;28;20958;-84
2023/09/02 05:59:27;;;;;;;4.80;3.20;;;;;;;;;;5054622;28;20491;-84
2023/09/02 06:01:56;;;;;;;2.60;2.27;;;;;;;;;;5054282;28;20441;-83
2023/09/02 06:04:25;;;;;;;2.77;2.47;;;;;;;;;;5054569;28;20469;-83
2023/09/02 06:06:52;;;;;;;4.00;2.87;;;;;;;;;;5058166;28;20439;-84
2023/09/02 06:09:19;;;;;;;3.77;2.70;;;;;;;;;;5055078;28;20523;-83
2023/09/02 06:11:46;;;;;;;3.23;2.60;;;;;;;;;;5049518;28;20533;-84
2023/09/02 06:14:14;;;;;;;2.97;2.67;;;;;;;;;;5053889;28;20896;-84
2023/09/02 06:16:41;;;;;;;3.17;2.50;;;;;;;;;;5053132;28;20479;-83
2023/09/02 06:19:08;;;;;;;3.60;2.60;;;;;;;;;;5054728;28;20503;-83
2023/09/02 06:21:37;;;;;;;4.23;2.87;;;;;;;;;;5052165;28;20457;-83
2023/09/02 06:24:05;;;;;;;3.43;2.60;;;;;;;;;;5050937;28;20540;-83
2023/09/02 06:26:32;;;;;;;6.20;2.90;;;;;;;;;;5050527;28;20531;-83
2023/09/02 06:29:00;;;;;;;5.13;3.57;;;;;;;;;;5051219;28;20572;-83
2023/09/02 06:31:27;;;;;;;4.70;2.57;;;;;;;;;;5052014;28;20540;-83
2023/09/02 06:33:54;;;;;;;4.80;2.83;;;;;;;;;;5049500;28;20497;-84
2023/09/02 06:36:21;;;;;;;3.73;3.13;;;;;;;;;;5049372;28;20469;-83
2023/09/02 06:38:52;;;;;;;3.20;2.90;;;;;;;;;;5048572;28;20472;-83
2023/09/02 06:41:20;;;;;;;5.23;2.60;;;;;;;;;;5052106;28;20560;-83
2023/09/02 06:43:47;;;;;;;3.00;2.70;;;;;;;;;;5051550;28;20905;-83
2023/09/02 06:46:15;;;;;;;4.13;3.03;;;;;;;;;;5043196;28;20953;-84
2023/09/02 06:48:43;;;;;;;4.87;3.30;;;;;;;;;;5034169;28;20512;-83
2023/09/02 06:51:10;;;;;;;3.70;3.30;;;;;;;;;;5033882;28;20450;-83
2023/09/02 06:53:38;;;;;;;4.17;3.23;;;;;;;;;;5051388;28;20500;-84
2023/09/02 06:56:08;;;;;;;3.70;2.53;;;;;;;;;;5051540;28;20520;-84
2023/09/02 06:58:36;;;;;;;4.40;2.70;;;;;;;;;;5047503;28;20449;-83
2023/09/02 07:01:03;;;;;;;3.90;3.23;;;;;;;;;;5050767;28;20464;-84
2023/09/02 07:03:30;;;;;;;3.37;2.90;;;;;;;;;;5050677;28;20519;-83
2023/09/02 07:06:05;;;;;;;3.40;3.03;;;;;;;;;;5050513;28;20446;-83
2023/09/02 07:08:32;;;;;;;4.53;3.03;;;;;;;;;;5047424;28;21062;-83
2023/09/02 07:10:59;;;;;;;3.10;2.80;;;;;;;;;;5050448;28;20511;-83
2023/09/02 07:13:28;;;;;;;3.40;2.90;;;;;;;;;;5049875;28;21085;-83
2023/09/02 07:16:05;;;;;;;7.40;4.17;;;;;;;;;;5049685;28;20441;-83
2023/09/02 07:18:32;;;;;;;4.83;3.20;;;;;;;;;;5049055;28;20504;-83
2023/09/02 07:21:00;;;;;;;4.50;3.20;;;;;;;;;;5050684;28;20519;-83
2023/09/02 07:23:27;;;;;;;3.47;2.87;;;;;;;;;;5050602;28;20474;-83
2023/09/02 07:25:55;;;;;;;4.13;3.73;;;;;;;;;;5050912;28;20876;-83
2023/09/02 07:28:22;;;;;;;5.10;2.70;;;;;;;;;;5057789;28;20922;-84
2023/09/02 07:30:51;;;;;;;4.73;3.27;;;;;;;;;;5053952;28;20515;-85
2023/09/02 07:33:19;;;;;;;4.60;3.00;;;;;;;;;;5052701;28;20484;-84
2023/09/02 07:35:46;;;;;;;5.30;3.97;;;;;;;;;;5050883;28;20461;-82
2023/09/02 07:38:27;;;;;;;6.80;4.07;;;;;;;;;;5055224;28;20440;-82
2023/09/02 07:40:54;;;;;;;4.13;3.73;;;;;;;;;;5052563;28;20452;-82
2023/09/02 07:43:22;;;;;;;4.13;3.73;;;;;;;;;;5050742;28;20453;-83
2023/09/02 07:45:50;;;;;;;5.17;3.50;;;;;;;;;;5054172;28;20441;-82
2023/09/02 07:48:18;;;;;;;4.70;2.93;;;;;;;;;;5053163;28;20477;-83
2023/09/02 07:50:45;;;;;;;3.60;3.23;;;;;;;;;;5053389;28;20469;-82
2023/09/02 07:53:13;;;;;;;3.80;3.33;;;;;;;;;;5051045;28;20485;-82
2023/09/02 07:55:41;;;;;;;3.93;3.03;;;;;;;;;;5052247;28;20522;-82
2023/09/02 07:58:09;;;;;;;3.53;3.23;;;;;;;;;;5051796;28;20470;-82
2023/09/02 08:00:37;;;;;;;3.43;2.73;;;;;;;;;;5051664;28;20434;-82
2023/09/02 08:03:06;;;;;;;3.50;3.00;;;;;;;;;;5053312;28;20450;-82
2023/09/02 08:05:33;;;;;;;2.87;2.50;;;;;;;;;;5051477;28;20430;-82
2023/09/02 08:08:03;;;;;;;4.20;3.00;;;;;;;;;;5051210;28;20491;-82
2023/09/02 08:10:34;;;;;;;2.53;2.27;;;;;;;;;;5052081;28;20442;-82
2023/09/02 08:13:01;;;;;;;5.50;3.00;;;;;;;;;;5052939;28;20461;-82
2023/09/02 08:15:29;;;;;;;4.33;3.20;;;;;;;;;;5053975;28;20462;-82
2023/09/02 08:17:56;;;;;;;3.23;2.30;;;;;;;;;;5053665;28;20484;-82
2023/09/02 08:20:25;;;;;;;3.13;2.70;;;;;;;;;;5049846;28;20472;-83
2023/09/02 08:22:52;;;;;;;5.10;2.87;;;;;;;;;;5052464;28;20457;-83
2023/09/02 08:25:19;;;;;;;3.40;3.07;;;;;;;;;;5051581;28;20469;-82
2023/09/02 08:27:49;;;;;;;4.50;3.40;;;;;;;;;;5050698;28;20930;-81
2023/09/02 08:30:18;;;;;;;3.67;2.90;;;;;;;;;;5048038;28;20508;-83
2023/09/02 08:32:51;;;;;;;3.63;2.77;;;;;;;;;;5052582;28;20524;-83
2023/09/02 08:35:19;;;;;;;3.27;2.90;;;;;;;;;;5052440;28;20923;-83
2023/09/02 08:37:47;;;;;;;3.20;2.70;;;;;;;;;;5049940;28;20445;-83
2023/09/02 08:40:15;;;;;;;3.60;2.90;;;;;;;;;;5046451;28;20839;-83
2023/09/02 08:42:43;;;;;;;4.30;3.60;;;;;;;;;;5046189;28;20458;-83
2023/09/02 08:45:11;;;;;;;3.43;3.10;;;;;;;;;;5041324;28;20528;-83
2023/09/02 08:47:40;;;;;;;3.87;2.87;;;;;;;;;;5039291;28;20441;-83
2023/09/02 08:50:08;;;;;;;3.23;2.90;;;;;;;;;;5039087;28;20564;-83
2023/09/02 08:52:35;;;;;;;4.17;3.03;;;;;;;;;;5042351;28;20479;-84
2023/09/02 08:55:04;;;;;;;4.03;2.80;;;;;;;;;;5043365;28;20810;-84
2023/09/02 08:57:32;;;;;;;3.97;3.43;;;;;;;;;;5042520;28;20473;-84
2023/09/02 09:00:00;;;;;;;5.37;3.23;;;;;;;;;;5042923;28;20441;-84
2023/09/02 09:02:27;;;;;;;4.00;2.90;;;;;;;;;;5043116;28;20864;-84
2023/09/02 09:04:55;;;;;;;3.23;2.87;;;;;;;;;;5044924;28;20445;-84
2023/09/02 09:07:22;;;;;;;3.77;2.97;;;;;;;;;;5042690;28;20438;-84
2023/09/02 09:09:50;;;;;;;3.33;2.80;;;;;;;;;;5042110;28;21114;-84
2023/09/02 09:12:21;;;;;;;3.60;3.30;;;;;;;;;;5053255;28;20441;-84
2023/09/02 09:14:49;;;;;;;3.70;3.00;;;;;;;;;;5043015;28;20881;-83
2023/09/02 09:17:17;;;;;;;3.07;2.70;;;;;;;;;;5039709;28;20914;-84
2023/09/02 09:19:44;;;;;;;3.23;2.90;;;;;;;;;;5040184;28;20461;-84
2023/09/02 09:22:12;;;;;;;3.40;3.10;;;;;;;;;;5041686;28;20434;-83
2023/09/02 09:24:39;;;;;;;3.10;2.80;;;;;;;;;;5042923;28;20516;-84
2023/09/02 09:27:07;;;;;;;4.47;3.30;;;;;;;;;;5043196;28;20436;-84
2023/09/02 09:29:40;;;;;;;3.30;2.90;;;;;;;;;;5048444;28;20556;-84
2023/09/02 09:32:12;;;;;;;5.90;3.30;;;;;;;;;;5050656;28;20447;-84
2023/09/02 09:34:40;;;;;;;3.50;2.90;;;;;;;;;;5042481;28;20820;-83
2023/09/02 09:37:09;;;;;;;3.27;2.80;;;;;;;;;;5044669;28;20849;-84
2023/09/02 09:39:40;;;;;;;3.40;2.90;;;;;;;;;;5045438;28;20433;-84
2023/09/02 09:42:07;;;;;;;4.00;3.47;;;;;;;;;;5048647;28;20437;-84
2023/09/02 09:44:34;;;;;;;3.53;3.10;;;;;;;;;;5051813;28;20802;-84
2023/09/02 09:47:03;;;;;;;4.37;3.73;;;;;;;;;;5052007;28;20483;-84
2023/09/02 09:49:31;;;;;;;4.00;3.10;;;;;;;;;;5053199;28;20531;-85
2023/09/02 09:52:11;;;;;;;3.90;3.50;;;;;;;;;;5054010;28;20543;-86
2023/09/02 09:54:39;;;;;;;4.37;3.77;;;;;;;;;;5053277;28;20503;-85
2023/09/02 09:57:06;;;;;;;4.13;3.53;;;;;;;;;;5050247;28;21052;-85
2023/09/02 09:59:34;;;;;;;5.37;3.53;;;;;;;;;;5051972;28;20437;-85
2023/09/02 10:02:01;;;;;;;3.67;3.37;;;;;;;;;;5051878;28;20873;-83
2023/09/02 10:04:30;;;;;;;4.90;4.40;;;;;;;;;;5051621;28;20519;-85
2023/09/02 10:07:01;;;;;;;3.60;3.30;;;;;;;;;;5051168;28;20529;-84
2023/09/02 10:09:42;;;;;;;6.50;3.80;;;;;;;;;;5047501;28;20527;-84
2023/09/02 10:12:13;;;;;;;3.50;3.07;;;;;;;;;;5050384;28;20528;-84
2023/09/02 10:14:40;;;;;;;4.60;3.73;;;;;;;;;;5050734;28;20526;-84
2023/09/02 10:17:08;;;;;;;4.60;3.43;;;;;;;;;;5050947;28;20465;-83
2023/09/02 10:19:37;;;;;;;4.03;2.80;;;;;;;;;;5051154;28;20433;-83
2023/09/02 10:22:05;;;;;;;6.13;4.20;;;;;;;;;;5048062;28;20472;-84
2023/09/02 10:24:34;;;;;;;4.63;4.00;;;;;;;;;;5046365;28;20486;-83
2023/09/02 10:27:06;;;;;;;4.30;3.63;;;;;;;;;;5048485;28;20464;-82
2023/09/02 10:29:35;;;;;;;3.50;3.00;;;;;;;;;;5045435;28;20477;-83
2023/09/02 10:32:07;;;;;;;4.00;3.30;;;;;;;;;;5045099;28;20473;-82
2023/09/02 10:34:40;;;;;;;3.97;3.07;;;;;;;;;;5047186;28;20472;-82
2023/09/02 10:37:12;;;;;;;3.10;2.77;;;;;;;;;;5046997;28;20477;-83
2023/09/02 10:39:43;;;;;;;5.60;2.87;;;;;;;;;;5051236;28;21047;-82
2023/09/02 10:42:11;;;;;;;3.60;2.97;;;;;;;;;;5050770;28;20433;-83
2023/09/02 10:44:37;;;;;;;3.53;3.00;;;;;;;;;;5048777;28;20438;-83
2023/09/02 10:47:05;;;;;;;3.97;3.57;;;;;;;;;;5052320;28;20434;-82
2023/09/02 10:49:33;;;;;;;3.53;3.23;;;;;;;;;;5053542;28;20551;-83
2023/09/02 10:52:02;;;;;;;5.07;3.03;;;;;;;;;;5058899;28;20445;-83
2023/09/02 10:54:45;;;;;;;3.90;3.60;;;;;;;;;;5056807;28;20969;-81
2023/09/02 10:57:13;;;;;;;3.93;3.53;;;;;;;;;;5055753;28;20457;-81
2023/09/02 10:59:41;;;;;;;3.03;2.70;;;;;;;;;;5054724;28;20969;-82
2023/09/02 11:02:08;;;;;;;4.43;2.80;;;;;;;;;;5055416;28;20448;-82
2023/09/02 11:04:54;;;;;;;5.60;3.00;;;;;;;;;;5055321;28;20453;-82
2023/09/02 11:07:29;;;;;;;3.50;3.20;;;;;;;;;;5053943;28;20437;-82
2023/09/02 11:09:57;;;;;;;4.07;2.97;;;;;;;;;;5053064;28;20473;-82
2023/09/02 11:12:26;;;;;;;3.53;3.17;;;;;;;;;;5055117;28;20441;-82
2023/09/02 11:15:11;;;;;;;3.83;2.90;;;;;;;;;;5055158;28;20460;-82
2023/09/02 11:17:39;;;;;;;3.47;3.17;;;;;;;;;;5053661;28;20437;-81
2023/09/02 11:20:08;;;;;;;3.70;3.00;;;;;;;;;;5052182;28;20441;-81
2023/09/02 11:22:50;;;;;;;3.70;3.20;;;;;;;;;;5048147;28;20461;-81
2023/09/02 11:25:27;;;;;;;4.97;3.53;;;;;;;;;;5049423;28;20440;-81
2023/09/02 11:27:55;;;;;;;3.50;2.97;;;;;;;;;;5052660;28;20958;-81
2023/09/02 11:30:23;;;;;;;3.50;3.20;;;;;;;;;;5052955;28;20477;-81
2023/09/02 11:32:50;;;;;;;4.53;3.23;;;;;;;;;;5052666;28;20547;-81
2023/09/02 11:35:22;;;;;;;3.70;3.00;;;;;;;;;;5051750;28;20865;-81
2023/09/02 11:37:51;;;;;;;5.10;2.87;;;;;;;;;;5052439;28;20488;-81
2023/09/02 11:40:19;;;;;;;3.93;3.00;;;;;;;;;;5051578;28;20512;-81
2023/09/02 11:42:49;;;;;;;4.00;3.47;;;;;;;;;;5052420;28;20485;-81
2023/09/02 11:45:17;;;;;;;3.57;3.13;;;;;;;;;;5051481;28;20499;-81
2023/09/02 11:47:44;;;;;;;3.23;2.93;;;;;;;;;;5052749;28;20499;-81
2023/09/02 11:50:15;;;;;;;3.70;3.30;;;;;;;;;;5052838;28;20562;-81
2023/09/02 11:52:43;;;;;;;3.50;2.90;;;;;;;;;;5051270;28;20970;-81
2023/09/02 11:55:12;;;;;;;3.87;3.27;;;;;;;;;;5052118;28;20858;-81
2023/09/02 11:57:40;;;;;;;3.73;3.17;;;;;;;;;;5052397;28;20445;-81
2023/09/02 12:00:09;;;;;;;5.13;3.20;;;;;;;;;;5052547;28;20430;-81
2023/09/02 12:02:37;;;;;;;3.23;2.70;;;;;;;;;;5052300;28;20453;-81
2023/09/02 12:05:04;;;;;;;4.23;2.97;;;;;;;;;;5051628;28;20531;-81
2023/09/02 12:07:32;;;;;;;2.93;2.63;;;;;;;;;;5051555;28;20462;-81
2023/09/02 12:10:05;;;;;;;3.53;3.23;;;;;;;;;;5051632;28;21134;-81
2023/09/02 12:12:34;;;;;;;3.50;3.00;;;;;;;;;;5051305;28;20566;-81
2023/09/02 12:15:03;;;;;;;3.33;2.93;;;;;;;;;;5047473;28;20875;-81
2023/09/02 12:17:30;;;;;;;3.33;2.90;;;;;;;;;;5047538;28;20429;-81
2023/09/02 12:19:58;;;;;;;3.60;3.30;;;;;;;;;;5058237;28;20453;-81
2023/09/02 12:22:25;;;;;;;4.63;3.80;;;;;;;;;;5069178;28;20433;-81
2023/09/02 12:24:52;;;;;;;4.50;3.47;;;;;;;;;;5050943;28;20461;-81
2023/09/02 12:27:19;;;;;;;4.00;3.60;;;;;;;;;;5051382;28;20433;-81
2023/09/02 12:29:58;;;;;;;3.13;2.63;;;;;;;;;;5050661;28;20468;-81
2023/09/02 12:32:25;;;;;;;3.00;2.50;;;;;;;;;;5050590;28;20469;-81
2023/09/02 12:34:53;;;;;;;3.13;2.83;;;;;;;;;;5051392;28;20989;-81
2023/09/02 12:37:21;;;;;;;2.70;2.40;;;;;;;;;;5050930;28;20864;-81
2023/09/02 12:39:48;;;;;;;3.73;3.03;;;;;;;;;;5051462;28;20437;-81
2023/09/02 12:42:19;;;;;;;3.50;2.53;;;;;;;;;;5050992;28;20477;-81
2023/09/02 12:44:49;;;;;;;3.73;3.03;;;;;;;;;;5050216;28;20484;-81
2023/09/02 12:47:21;;;;;;;3.60;2.90;;;;;;;;;;5051656;28;20865;-81
2023/09/02 12:49:48;;;;;;;3.50;2.70;;;;;;;;;;5051408;28;21009;-81
2023/09/02 12:52:16;;;;;;;3.57;3.27;;;;;;;;;;5050290;28;20930;-81
2023/09/02 12:54:46;;;;;;;3.80;3.23;;;;;;;;;;5049851;28;20789;-81
2023/09/02 12:57:14;;;;;;;3.50;2.93;;;;;;;;;;5047750;28;21024;-81
2023/09/02 12:59:41;;;;;;;3.23;2.73;;;;;;;;;;5048730;28;20959;-81
2023/09/02 13:02:08;;;;;;;3.20;2.73;;;;;;;;;;5049286;28;20481;-81
2023/09/02 13:04:38;;;;;;;4.17;3.10;;;;;;;;;;5049957;28;20468;-81
2023/09/02 13:07:05;;;;;;;2.90;2.60;;;;;;;;;;5050474;28;20509;-81
2023/09/02 13:09:32;;;;;;;4.70;3.07;;;;;;;;;;5045738;28;20983;-81
2023/09/02 13:12:01;;;;;;;3.40;3.10;;;;;;;;;;5048679;28;20495;-81
2023/09/02 13:14:29;;;;;;;3.57;3.00;;;;;;;;;;5048215;28;20977;-81
2023/09/02 13:16:56;;;;;;;3.50;3.20;;;;;;;;;;5049032;28;20516;-81
2023/09/02 13:19:24;;;;;;;3.07;2.40;;;;;;;;;;5049357;28;20468;-81
2023/09/02 13:21:53;;;;;;;4.77;3.17;;;;;;;;;;5042756;28;20524;-81
2023/09/02 13:24:21;;;;;;;3.67;3.03;;;;;;;;;;5045945;28;20584;-81
2023/09/02 13:26:49;;;;;;;4.07;2.90;;;;;;;;;;5044495;28;20438;-81
2023/09/02 13:29:18;;;;;;;3.63;3.20;;;;;;;;;;5049612;28;21005;-81
2023/09/02 13:31:45;;;;;;;3.80;3.37;;;;;;;;;;5048712;28;20652;-81
2023/09/02 13:34:23;;;;;;;3.60;2.80;;;;;;;;;;5047569;28;20518;-81
2023/09/02 13:36:50;;;;;;;6.80;3.30;;;;;;;;;;5042900;28;20427;-80
2023/09/02 13:39:19;;;;;;;3.70;3.00;;;;;;;;;;5048343;28;20469;-81
2023/09/02 13:41:47;;;;;;;3.57;3.27;;;;;;;;;;5048737;28;20475;-81
2023/09/02 13:44:14;;;;;;;5.57;3.63;;;;;;;;;;5050058;28;20966;-81
2023/09/02 13:46:41;;;;;;;3.90;2.83;;;;;;;;;;5044688;28;20598;-81
2023/09/02 13:49:09;;;;;;;3.57;3.07;;;;;;;;;;5049669;28;20480;-81
2023/09/02 13:51:36;;;;;;;3.93;3.00;;;;;;;;;;5049271;28;20477;-81
2023/09/02 13:54:03;;;;;;;4.13;3.20;;;;;;;;;;5060185;28;20480;-81
2023/09/02 13:56:32;;;;;;;3.50;2.37;;;;;;;;;;5064127;28;20456;-81
2023/09/02 13:59:01;;;;;;;4.50;3.20;;;;;;;;;;5044170;28;20469;-81
2023/09/02 14:01:30;;;;;;;3.40;2.93;;;;;;;;;;5041834;28;20460;-81
2023/09/02 14:03:57;;;;;;;3.43;2.70;;;;;;;;;;5041330;28;20516;-81
2023/09/02 14:06:24;;;;;;;3.63;3.03;;;;;;;;;;5045849;28;20484;-81
2023/09/02 14:08:51;;;;;;;4.47;2.40;;;;;;;;;;5042244;28;20477;-81
2023/09/02 14:11:19;;;;;;;3.37;2.73;;;;;;;;;;5047255;28;20517;-81
2023/09/02 14:13:49;;;;;;;3.90;2.60;;;;;;;;;;5051119;28;20457;-80
2023/09/02 14:16:17;;;;;;;5.37;2.37;;;;;;;;;;5051615;28;20437;-81
2023/09/02 14:18:44;;;;;;;3.50;3.07;;;;;;;;;;5053767;28;21087;-81
2023/09/02 14:21:11;;;;;;;6.33;2.90;;;;;;;;;;5052826;28;20813;-81
2023/09/02 14:23:38;;;;;;;3.17;2.67;;;;;;;;;;5053588;28;20457;-81
2023/09/02 14:26:06;;;;;;;3.30;3.00;;;;;;;;;;5053953;28;20987;-81
2023/09/02 14:28:33;;;;;;;3.00;2.03;;;;;;;;;;5040078;28;20453;-81
2023/09/02 14:31:02;;;;;;;3.70;2.77;;;;;;;;;;5037484;28;20817;-80
2023/09/02 14:33:29;;;;;;;3.10;2.80;;;;;;;;;;5036855;28;20498;-81
2023/09/02 14:35:57;;;;;;;4.00;2.77;;;;;;;;;;5036560;28;20521;-81
2023/09/02 14:38:24;;;;;;;2.93;2.40;;;;;;;;;;5036938;28;20446;-81
2023/09/02 14:40:51;;;;;;;3.10;2.57;;;;;;;;;;5037618;28;20469;-81
2023/09/02 14:43:19;;;;;;;3.77;2.40;;;;;;;;;;5038059;28;20504;-81
2023/09/02 14:45:46;;;;;;;3.30;2.47;;;;;;;;;;5047596;28;20961;-82
2023/09/02 14:48:15;;;;;;;2.80;2.50;;;;;;;;;;5047421;28;20437;-81
2023/09/02 14:50:42;;;;;;;4.50;2.90;;;;;;;;;;5045816;28;20527;-81